GMMX/RAK METAR and TAF weather

Enter ICAO airport designator
Station Type Date Time Source
GMMX METAR 2019/04/25 16:30 UTC NOAA

GMMX 251630Z 33003KT 300V360 9999 SCT023 25/10 Q1018 NOSIG


Station Type Date Time Source
GMMX Decoded METAR 2019/04/25 16:30 UTC NOAA

Marrakech, Morocco (GMMX) 31-37N 008-02W 466M
Apr 25, 2019 - 12:30 PM EDT / 2019.04.25 1630 UTC
Wind: from the NNW (330 degrees) at 3 MPH (3 KT) (direction variable):0
Visibility: greater than 7 mile(s):0
Sky conditions: partly cloudy
Temperature: 77 F (25 C)
Dew Point: 50 F (10 C)
Relative Humidity: 38%
Pressure (altimeter): 30.06 in. Hg (1018 hPa)
ob: GMMX 251630Z 33003KT 300V360 9999 SCT023 25/10 Q1018 NOSIG
cycle: 16

Station Type Date Time Source
GMMX TAF 2019/04/25 12:43 UTC NOAA

TAF GMMX 251100Z 2512/2618 28006KT 8000 SCT023
TEMPO 2515/1521 36014KT

Example: see airport list